Time;durP1;ratioP1;P1;durP2;ratioP2;P2;SDS_P1;SDS_P2;PMS_P1;PMS_P2;Temp;Humidity;BMP_temperature;BMP_pressure;BME280_temperature;BME280_humidity;BME280_pressure;Samples;Min_cycle;Max_cycle;Signal;HPM_P1;HPM_P2
2021/06/28 00:02:43;;;;;;;4.25;2.17;;;;;;;17.55;84.77;96133.22;5158923;57;20581;-71
2021/06/28 00:07:46;;;;;;;2.70;2.28;;;;;;;17.40;85.21;96129.91;5159301;57;20698;-72
2021/06/28 00:12:51;;;;;;;2.28;2.13;;;;;;;17.45;85.22;96121.53;5158866;57;20125;-71
2021/06/28 00:17:54;;;;;;;2.50;2.30;;;;;;;17.30;85.27;96123.09;5159518;57;20206;-71
2021/06/28 00:23:01;;;;;;;2.50;2.30;;;;;;;17.13;85.89;96109.94;5159586;57;20120;-72
2021/06/28 00:28:05;;;;;;;4.15;2.65;;;;;;;17.21;86.15;96113.72;5168302;57;20125;-71
2021/06/28 00:33:13;;;;;;;2.78;2.50;;;;;;;17.39;85.26;96111.66;5180814;57;20112;-71
2021/06/28 00:38:16;;;;;;;2.67;2.47;;;;;;;17.18;85.76;96122.34;5183108;57;20147;-70
2021/06/28 00:43:18;;;;;;;2.80;2.17;;;;;;;17.19;85.93;96115.50;5184366;57;20112;-72
2021/06/28 00:48:21;;;;;;;1.92;1.83;;;;;;;17.25;85.46;96116.25;5181426;57;20138;-71
2021/06/28 00:53:24;;;;;;;2.25;2.05;;;;;;;17.26;85.47;96119.78;5173751;57;20134;-71
2021/06/28 00:58:26;;;;;;;3.97;2.20;;;;;;;17.12;85.33;96111.19;5160131;57;20961;-71
2021/06/28 01:03:28;;;;;;;4.55;2.30;;;;;;;17.15;85.59;96110.19;5163555;57;20285;-70
2021/06/28 01:08:31;;;;;;;3.45;2.33;;;;;;;17.17;86.12;96127.19;5158614;57;20823;-71
2021/06/28 01:13:36;;;;;;;2.60;2.40;;;;;;;17.17;86.56;96129.19;5159288;57;20130;-71
2021/06/28 01:18:39;;;;;;;2.60;2.40;;;;;;;17.24;86.69;96117.50;5158843;57;20160;-71
2021/06/28 01:23:41;;;;;;;2.30;2.00;;;;;;;17.36;85.78;96126.63;5161059;57;20165;-72
2021/06/28 01:28:44;;;;;;;2.38;2.22;;;;;;;17.48;85.52;96131.66;5161650;57;20111;-70
2021/06/28 01:33:46;;;;;;;2.15;2.05;;;;;;;17.42;85.89;96127.38;5161282;57;20138;-70
2021/06/28 01:38:50;;;;;;;3.97;2.08;;;;;;;17.59;85.39;96123.28;5161689;57;20146;-70
2021/06/28 01:43:53;;;;;;;3.63;2.08;;;;;;;17.68;84.80;96114.63;5162049;57;20160;-71
2021/06/28 01:48:55;;;;;;;2.88;2.47;;;;;;;17.79;84.75;96106.19;5161182;57;20133;-71
2021/06/28 01:53:58;;;;;;;2.15;2.05;;;;;;;17.62;85.69;96090.75;5161497;57;20121;-72
2021/06/28 01:59:00;;;;;;;3.08;2.30;;;;;;;17.68;85.75;96094.28;5160727;57;20125;-70
2021/06/28 02:04:02;;;;;;;4.03;2.20;;;;;;;17.74;85.80;96118.16;5161480;57;20138;-71
2021/06/28 02:09:05;;;;;;;4.20;2.25;;;;;;;17.77;85.65;96119.16;5161065;57;20125;-71
2021/06/28 02:14:07;;;;;;;2.40;2.17;;;;;;;17.96;85.01;96150.81;5161327;57;20143;-73
2021/06/28 02:19:10;;;;;;;3.95;2.30;;;;;;;17.87;84.14;96168.66;5160915;57;20641;-72
2021/06/28 02:24:14;;;;;;;2.80;2.08;;;;;;;17.87;83.83;96184.66;5161239;57;20648;-72
2021/06/28 02:29:16;;;;;;;2.22;2.03;;;;;;;17.73;84.51;96166.19;5160819;57;20137;-71
2021/06/28 02:34:18;;;;;;;2.65;2.15;;;;;;;17.64;84.87;96158.09;5160594;57;20222;-71
2021/06/28 02:39:21;;;;;;;2.40;1.95;;;;;;;17.47;85.64;96146.91;5159967;57;20133;-71
2021/06/28 02:44:23;;;;;;;2.30;2.10;;;;;;;17.35;85.89;96136.25;5161136;57;20143;-70
2021/06/28 02:49:26;;;;;;;3.78;2.33;;;;;;;17.28;86.12;96145.19;5160770;57;20679;-70
2021/06/28 02:54:30;;;;;;;3.35;2.00;;;;;;;17.23;86.30;96134.78;5161217;57;20143;-71
2021/06/28 02:59:32;;;;;;;2.45;2.08;;;;;;;17.12;86.50;96135.53;5160283;57;20129;-70
2021/06/28 03:04:35;;;;;;;3.08;2.22;;;;;;;17.14;85.93;96136.56;5160635;57;20129;-72
2021/06/28 03:09:37;;;;;;;2.53;1.90;;;;;;;17.04;85.95;96138.13;5160447;57;20147;-69
2021/06/28 03:14:40;;;;;;;3.45;1.90;;;;;;;17.00;86.64;96134.84;5160418;57;20688;-72
2021/06/28 03:19:43;;;;;;;1.80;1.70;;;;;;;16.93;85.95;96140.16;5160341;57;20590;-71
2021/06/28 03:24:45;;;;;;;2.38;2.17;;;;;;;16.87;86.62;96142.19;5160138;57;20112;-70
2021/06/28 03:29:48;;;;;;;3.65;2.30;;;;;;;16.79;87.06;96146.75;5160091;57;20993;-71
2021/06/28 03:34:53;;;;;;;2.13;2.03;;;;;;;16.62;87.00;96143.97;5159803;57;20133;-68
2021/06/28 03:39:55;;;;;;;2.22;1.90;;;;;;;16.62;87.29;96135.59;5159985;57;20124;-70
2021/06/28 03:44:58;;;;;;;2.20;2.00;;;;;;;16.73;87.23;96143.97;5159703;57;20134;-70
2021/06/28 03:50:02;;;;;;;2.20;1.98;;;;;;;16.79;86.76;96150.31;5160092;57;20142;-70
2021/06/28 03:55:06;;;;;;;1.95;1.85;;;;;;;16.85;86.90;96148.28;5159610;57;20178;-70
2021/06/28 04:00:15;;;;;;;1.73;1.63;;;;;;;17.05;86.12;96158.44;5159020;57;20763;-72
2021/06/28 04:05:20;;;;;;;1.80;1.70;;;;;;;17.18;85.79;96155.88;5159962;57;20129;-71
2021/06/28 04:10:25;;;;;;;1.75;1.58;;;;;;;17.07;85.95;96148.25;5159651;57;20416;-71
2021/06/28 04:15:27;;;;;;;1.65;1.60;;;;;;;17.16;85.49;96156.34;5159170;57;20121;-72
2021/06/28 04:20:29;;;;;;;1.95;1.85;;;;;;;17.09;85.48;96144.97;5159291;57;20151;-71
2021/06/28 04:25:32;;;;;;;2.38;1.90;;;;;;;17.54;84.51;96162.41;5158994;57;20138;-71
2021/06/28 04:30:35;;;;;;;1.88;1.77;;;;;;;17.93;83.55;96157.47;5159863;57;20231;-69
2021/06/28 04:35:38;;;;;;;1.80;1.70;;;;;;;18.34;82.28;96165.91;5160133;57;20741;-70
2021/06/28 04:40:41;;;;;;;3.92;1.88;;;;;;;18.53;81.77;96150.78;5159739;57;20133;-70
2021/06/28 04:45:43;;;;;;;1.80;1.70;;;;;;;18.76;80.98;96153.41;5159584;57;20120;-70
2021/06/28 04:50:46;;;;;;;1.70;1.55;;;;;;;18.84;80.73;96160.72;5160288;57;20134;-71
2021/06/28 04:55:48;;;;;;;1.75;1.65;;;;;;;18.94;80.65;96161.16;5160520;57;20124;-69
2021/06/28 05:00:51;;;;;;;1.80;1.70;;;;;;;19.01;80.30;96166.19;5163248;57;20161;-71
2021/06/28 05:05:54;;;;;;;1.70;1.60;;;;;;;19.12;80.35;96166.88;5162427;57;20130;-70
2021/06/28 05:10:56;;;;;;;2.05;1.70;;;;;;;19.31;80.25;96176.09;5162197;57;20148;-71
2021/06/28 05:15:58;;;;;;;2.03;1.88;;;;;;;19.61;80.14;96162.06;5161610;57;20125;-71
2021/06/28 05:21:01;;;;;;;1.65;1.55;;;;;;;19.61;79.26;96167.69;5161526;57;20688;-72
2021/06/28 05:26:03;;;;;;;1.85;1.60;;;;;;;19.87;79.21;96167.16;5161557;57;20590;-72
2021/06/28 05:31:06;;;;;;;1.80;1.70;;;;;;;20.14;78.53;96171.66;5161621;57;20129;-71
2021/06/28 05:36:08;;;;;;;2.97;1.85;;;;;;;20.36;77.77;96162.19;5161438;57;20125;-72
2021/06/28 05:41:11;;;;;;;2.30;1.77;;;;;;;20.42;77.53;96154.47;5176457;57;20120;-71
2021/06/28 05:46:14;;;;;;;2.35;2.15;;;;;;;20.69;76.82;96168.09;5174499;57;20147;-70
2021/06/28 05:51:18;;;;;;;2.42;2.33;;;;;;;20.79;76.45;96159.28;5161566;57;20120;-72
2021/06/28 05:56:21;;;;;;;2.97;2.22;;;;;;;21.19;75.44;96158.91;5161904;57;20134;-71
2021/06/28 06:01:23;;;;;;;2.17;1.98;;;;;;;21.33;74.74;96157.63;5162292;57;20138;-71
2021/06/28 06:06:25;;;;;;;2.65;2.45;;;;;;;21.43;75.04;96166.41;5162041;57;20222;-70
2021/06/28 06:11:28;;;;;;;2.00;1.90;;;;;;;21.49;74.79;96163.47;5162237;57;20134;-72
2021/06/28 06:16:30;;;;;;;2.60;2.40;;;;;;;21.77;73.88;96167.31;5161730;57;20129;-71
2021/06/28 06:21:33;;;;;;;2.65;2.47;;;;;;;21.87;73.77;96164.84;5161311;57;20686;-67
2021/06/28 06:26:35;;;;;;;2.50;2.30;;;;;;;21.88;72.73;96169.94;5160850;57;20134;-70
2021/06/28 06:31:38;;;;;;;2.60;2.30;;;;;;;22.20;72.48;96178.25;5162300;57;20129;-71
2021/06/28 06:36:40;;;;;;;2.55;2.35;;;;;;;22.57;70.38;96186.38;5161367;57;20134;-71
2021/06/28 06:41:43;;;;;;;2.67;2.47;;;;;;;22.58;68.74;96199.19;5160801;57;20142;-71
2021/06/28 06:46:45;;;;;;;3.30;2.55;;;;;;;22.66;68.71;96194.41;5160417;57;20121;-70
2021/06/28 06:51:48;;;;;;;2.55;2.35;;;;;;;22.81;67.25;96199.47;5160536;57;20134;-70
2021/06/28 06:56:50;;;;;;;3.13;2.30;;;;;;;22.82;66.71;96198.91;5160417;57;20150;-69
2021/06/28 07:01:53;;;;;;;3.25;2.30;;;;;;;23.03;68.29;96209.47;5160658;57;20800;-70
2021/06/28 07:06:55;;;;;;;2.38;2.17;;;;;;;22.97;68.53;96197.56;5158808;57;20116;-70
2021/06/28 07:11:57;;;;;;;2.30;2.10;;;;;;;23.37;66.73;96193.28;5159866;57;20247;-70
2021/06/28 07:17:00;;;;;;;2.65;2.05;;;;;;;23.65;66.38;96189.75;5159451;57;20121;-70
2021/06/28 07:22:03;;;;;;;2.92;1.80;;;;;;;23.90;63.14;96191.63;5158435;57;20176;-69
2021/06/28 07:27:05;;;;;;;2.25;1.70;;;;;;;24.29;62.77;96184.16;5158102;57;20670;-69
2021/06/28 07:32:08;;;;;;;1.95;1.40;;;;;;;24.65;60.04;96167.91;5158075;57;20116;-70
2021/06/28 07:37:10;;;;;;;2.28;1.50;;;;;;;24.77;60.12;96174.75;5159572;57;20132;-69
2021/06/28 07:42:13;;;;;;;1.55;1.52;;;;;;;24.90;62.27;96168.94;5159107;57;20142;-69
2021/06/28 07:47:15;;;;;;;1.60;1.50;;;;;;;25.18;59.83;96170.88;5159053;57;20139;-68
2021/06/28 07:52:18;;;;;;;1.63;1.63;;;;;;;25.59;60.41;96176.22;5159819;57;20137;-69
2021/06/28 07:57:20;;;;;;;2.03;1.67;;;;;;;26.80;57.00;96175.94;5159319;57;20121;-67
2021/06/28 08:02:23;;;;;;;1.90;1.80;;;;;;;28.21;52.16;96183.19;5159376;57;20696;-67
2021/06/28 08:07:25;;;;;;;1.80;1.70;;;;;;;28.83;51.16;96184.03;5159205;57;20222;-68
2021/06/28 08:12:35;;;;;;;2.53;1.67;;;;;;;29.13;50.15;96174.31;5159539;57;20124;-69
2021/06/28 08:17:38;;;;;;;1.67;1.58;;;;;;;29.34;50.00;96163.94;5158993;57;20684;-68
2021/06/28 08:22:43;;;;;;;1.88;1.70;;;;;;;29.79;50.56;96168.19;5160357;57;20143;-68
2021/06/28 08:27:46;;;;;;;1.80;1.70;;;;;;;30.46;47.63;96159.75;5155096;57;20143;-68
2021/06/28 08:32:48;;;;;;;1.65;1.63;;;;;;;30.34;47.35;96164.56;5139582;57;20122;-70
2021/06/28 08:37:50;;;;;;;1.75;1.65;;;;;;;30.81;43.86;96151.59;5152034;57;20775;-71
2021/06/28 08:42:53;;;;;;;2.45;2.17;;;;;;;30.09;45.47;96146.94;5152802;57;20129;-70
2021/06/28 08:47:56;;;;;;;2.63;1.90;;;;;;;30.69;45.50;96148.59;5146222;57;20123;-70
2021/06/28 08:52:58;;;;;;;2.78;2.58;;;;;;;30.33;44.96;96143.06;5159870;57;20130;-72
2021/06/28 08:58:04;;;;;;;2.20;2.10;;;;;;;31.50;44.36;96143.03;5160049;57;20133;-69
2021/06/28 09:03:10;;;;;;;2.20;2.00;;;;;;;30.35;43.57;96138.28;5157899;57;20120;-69
2021/06/28 09:08:13;;;;;;;1.60;1.50;;;;;;;32.03;43.46;96135.97;5158824;57;20133;-69
2021/06/28 09:13:16;;;;;;;4.78;1.75;;;;;;;32.38;41.59;96149.13;5148995;57;20171;-70
2021/06/28 09:18:23;;;;;;;1.98;1.60;;;;;;;33.08;40.08;96150.19;5156465;57;22008;-69
2021/06/28 09:23:26;;;;;;;2.67;1.70;;;;;;;30.94;45.98;96146.19;5139545;57;20121;-70
2021/06/28 09:28:33;;;;;;;2.53;1.73;;;;;;;31.53;41.74;96147.53;5151120;57;20125;-70
2021/06/28 09:33:36;;;;;;;3.83;1.60;;;;;;;32.42;40.88;96157.97;5153403;57;20226;-70
2021/06/28 09:38:39;;;;;;;1.63;1.40;;;;;;;33.39;38.95;96152.84;5139405;57;20192;-70
2021/06/28 09:43:41;;;;;;;1.33;1.23;;;;;;;33.31;37.96;96145.84;5150584;57;20133;-70
2021/06/28 09:48:53;;;;;;;1.17;1.17;;;;;;;33.61;38.05;96147.75;5142134;57;20113;-71
2021/06/28 09:54:08;;;;;;;4.30;1.10;;;;;;;32.61;43.41;96134.22;5140977;57;20841;-70
2021/06/28 09:59:35;;;;;;;2.85;1.25;;;;;;;33.22;38.78;96141.75;5139637;57;20117;-71
2021/06/28 10:04:51;;;;;;;1.40;1.30;;;;;;;33.34;39.55;96131.03;5141043;57;20130;-70
2021/06/28 10:10:28;;;;;;;1.10;1.10;;;;;;;33.20;39.69;96121.56;5144408;57;20134;-71
2021/06/28 10:15:39;;;;;;;1.20;1.10;;;;;;;33.69;38.04;96117.50;5158005;57;20358;-70
2021/06/28 10:20:42;;;;;;;1.30;1.15;;;;;;;33.62;37.04;96120.59;5160048;57;20143;-71
2021/06/28 10:25:45;;;;;;;2.58;1.05;;;;;;;33.95;37.79;96113.34;5160554;57;20121;-69
2021/06/28 10:30:49;;;;;;;1.13;1.13;;;;;;;34.28;37.58;96103.81;5161149;57;20116;-72
2021/06/28 10:35:59;;;;;;;1.20;1.10;;;;;;;35.30;37.49;96103.91;5160180;57;20138;-70
2021/06/28 10:41:04;;;;;;;0.90;0.90;;;;;;;34.43;36.20;96094.63;5161015;57;20138;-70
2021/06/28 10:46:28;;;;;;;1.00;1.00;;;;;;;35.00;34.59;96090.75;5160106;57;20594;-70
2021/06/28 10:51:47;;;;;;;1.08;1.08;;;;;;;35.02;34.62;96082.28;5151572;57;20129;-72
2021/06/28 10:56:52;;;;;;;1.10;1.00;;;;;;;34.48;33.56;96079.91;5159732;57;20242;-70
2021/06/28 11:01:55;;;;;;;1.95;1.00;;;;;;;33.67;36.46;96068.66;5160428;57;20138;-69
2021/06/28 11:07:02;;;;;;;1.20;1.20;;;;;;;33.38;36.51;96074.00;5159937;57;20129;-70
2021/06/28 11:12:20;;;;;;;;;;;;;;;33.03;37.46;96067.50;5160566;57;20125;-70
2021/06/28 11:17:38;;;;;;;1.08;1.08;;;;;;;34.13;38.01;96058.47;5160334;57;19999;-71
2021/06/28 11:22:48;;;;;;;1.35;1.13;;;;;;;34.35;36.57;96059.75;5160576;57;20503;-70
2021/06/28 11:27:56;;;;;;;2.70;1.10;;;;;;;33.61;39.11;96048.19;5172855;57;20121;-71
2021/06/28 11:33:10;;;;;;;1.15;1.15;;;;;;;33.43;36.68;96049.94;5169926;57;20882;-69
2021/06/28 11:38:34;;;;;;;1.45;1.30;;;;;;;33.40;39.17;96034.03;5155897;57;20144;-70
2021/06/28 11:43:51;;;;;;;1.23;1.15;;;;;;;33.58;39.90;96023.69;5144176;57;20749;-70
2021/06/28 11:49:04;;;;;;;1.00;1.00;;;;;;;33.57;37.73;96022.19;5146226;57;20599;-70
2021/06/28 11:54:13;;;;;;;1.02;1.02;;;;;;;33.05;38.11;96027.53;5139166;57;20582;-70
2021/06/28 11:59:18;;;;;;;1.92;1.10;;;;;;;33.83;37.76;96008.66;5137448;57;20135;-69
2021/06/28 12:04:20;;;;;;;1.20;1.20;;;;;;;34.11;35.87;96003.84;5145078;57;20143;-70
2021/06/28 12:09:35;;;;;;;1.38;1.27;;;;;;;33.37;37.66;96011.59;5129997;57;20671;-70
2021/06/28 12:14:39;;;;;;;1.20;1.20;;;;;;;33.21;38.85;95997.78;5139367;57;20627;-71
2021/06/28 12:19:43;;;;;;;1.10;1.10;;;;;;;33.85;39.65;96006.66;5138250;57;20130;-69
2021/06/28 12:24:48;;;;;;;5.10;1.33;;;;;;;33.40;39.42;95991.03;5139201;57;20139;-69
2021/06/28 12:29:52;;;;;;;1.08;1.08;;;;;;;33.38;37.96;95999.53;5138952;57;20861;-70
2021/06/28 12:35:06;;;;;;;3.75;1.25;;;;;;;32.87;38.42;96000.59;5138808;57;20135;-70
2021/06/28 12:40:19;;;;;;;1.25;1.25;;;;;;;33.48;36.68;95996.50;5138656;57;20138;-69
2021/06/28 12:45:24;;;;;;;2.38;1.10;;;;;;;33.41;37.07;95994.63;5138563;57;20659;-70
2021/06/28 12:50:31;;;;;;;2.75;1.17;;;;;;;33.30;40.00;95986.81;5138695;57;20153;-70
2021/06/28 12:55:33;;;;;;;1.13;1.13;;;;;;;33.28;36.43;95993.16;5138351;57;20131;-70
2021/06/28 13:00:44;;;;;;;2.30;1.20;;;;;;;33.49;36.36;96001.63;5145080;57;20138;-71
2021/06/28 13:05:51;;;;;;;1.10;1.10;;;;;;;33.77;37.17;95994.72;5151896;57;20128;-69
2021/06/28 13:11:11;;;;;;;3.50;1.20;;;;;;;33.78;36.47;95995.47;5145028;57;20599;-70
2021/06/28 13:17:37;;;;;;;1.20;1.20;;;;;;;33.99;38.64;95988.78;5142914;57;20590;-69
2021/06/28 13:22:14;;;;;;;2.60;1.10;;;;;;;33.83;38.19;95991.47;5097230;57;20236;-71
2021/06/28 13:27:26;;;;;;;1.05;1.05;;;;;;;33.20;36.49;95981.97;5131125;57;20125;-70
2021/06/28 13:32:29;;;;;;;1.08;1.05;;;;;;;33.53;36.91;95981.81;5145226;57;20120;-70
2021/06/28 13:37:37;;;;;;;3.75;1.00;;;;;;;33.35;33.40;95971.34;5144080;57;20223;-71
2021/06/28 13:42:50;;;;;;;1.38;1.10;;;;;;;33.45;33.26;95974.84;5143654;57;20129;-70
2021/06/28 13:47:58;;;;;;;2.53;1.27;;;;;;;33.01;33.96;95967.16;5151548;57;20130;-71
2021/06/28 13:53:05;;;;;;;1.20;1.10;;;;;;;33.41;35.39;95969.59;5137846;57;20135;-70
2021/06/28 13:58:09;;;;;;;1.05;1.02;;;;;;;33.68;35.70;95958.34;5143861;57;20201;-70
2021/06/28 14:03:13;;;;;;;1.30;1.20;;;;;;;34.08;35.27;95957.09;5141723;57;20126;-70
2021/06/28 14:08:18;;;;;;;1.35;1.08;;;;;;;34.28;36.31;95954.63;5140031;57;20586;-68
2021/06/28 14:13:22;;;;;;;1.20;1.20;;;;;;;33.39;35.59;95966.63;5150299;57;20113;-70
2021/06/28 14:18:27;;;;;;;0.90;0.90;;;;;;;33.52;36.40;95957.41;5155040;57;20139;-69
2021/06/28 14:23:29;;;;;;;1.10;1.10;;;;;;;33.34;37.87;95964.16;5140745;57;20117;-70
2021/06/28 14:28:31;;;;;;;2.30;1.27;;;;;;;33.43;34.33;95954.66;5139788;57;20130;-69
2021/06/28 14:33:34;;;;;;;1.17;1.08;;;;;;;33.62;33.45;95949.41;5140522;57;20143;-70
2021/06/28 14:38:37;;;;;;;1.10;1.10;;;;;;;33.61;34.33;95947.16;5140446;57;20130;-70
2021/06/28 14:43:50;;;;;;;3.67;1.13;;;;;;;33.03;35.86;95944.38;5131849;57;20134;-70
2021/06/28 14:48:53;;;;;;;1.05;1.05;;;;;;;32.34;37.37;95940.03;5140153;57;20147;-70
2021/06/28 14:53:55;;;;;;;1.05;1.05;;;;;;;32.24;37.43;95933.69;5140666;57;20134;-71
2021/06/28 14:58:58;;;;;;;1.10;1.10;;;;;;;32.52;37.66;95918.34;5144691;57;20562;-69
2021/06/28 15:04:00;;;;;;;1.95;1.30;;;;;;;32.30;39.21;95922.63;5147083;57;20147;-69
2021/06/28 15:09:03;;;;;;;1.00;1.00;;;;;;;32.72;37.06;95906.66;5145877;57;20563;-71
2021/06/28 15:14:05;;;;;;;1.13;1.13;;;;;;;32.58;36.71;95909.41;5150123;57;20122;-69
2021/06/28 15:19:08;;;;;;;1.05;1.05;;;;;;;32.11;35.55;95907.81;5150158;57;20121;-71
2021/06/28 15:24:10;;;;;;;1.35;1.10;;;;;;;32.24;38.07;95892.91;5149206;57;20130;-69
2021/06/28 15:29:13;;;;;;;1.95;1.25;;;;;;;31.72;37.70;95905.31;5133103;57;20143;-69
2021/06/28 15:34:15;;;;;;;1.35;1.10;;;;;;;31.33;38.65;95889.81;5138487;57;20147;-70
2021/06/28 15:39:17;;;;;;;1.13;1.13;;;;;;;31.29;39.33;95883.09;5142907;57;20113;-70
2021/06/28 15:44:20;;;;;;;1.88;1.20;;;;;;;31.10;39.82;95878.28;5145958;57;20148;-70
2021/06/28 15:49:22;;;;;;;1.00;1.00;;;;;;;31.66;40.03;95882.03;5145204;57;20120;-69
2021/06/28 15:54:25;;;;;;;2.15;1.27;;;;;;;30.98;39.87;95872.50;5145317;57;20133;-69
2021/06/28 15:59:27;;;;;;;1.67;1.40;;;;;;;30.76;42.87;95853.84;5153434;57;20121;-69
2021/06/28 16:04:29;;;;;;;1.45;1.35;;;;;;;30.54;42.52;95848.72;5141097;57;20604;-70
2021/06/28 16:09:31;;;;;;;1.70;1.60;;;;;;;30.32;42.62;95833.69;5143740;57;20112;-70
2021/06/28 16:14:34;;;;;;;2.53;1.60;;;;;;;29.87;43.07;95820.47;5139119;57;20209;-70
2021/06/28 16:19:36;;;;;;;3.53;1.65;;;;;;;29.91;42.87;95817.91;5145731;57;20230;-70
2021/06/28 16:24:51;;;;;;;1.98;1.88;;;;;;;29.84;42.84;95805.34;5139915;57;20169;-70
2021/06/28 16:29:53;;;;;;;1.80;1.70;;;;;;;29.66;44.31;95792.63;5138871;57;20143;-69
2021/06/28 16:34:56;;;;;;;2.08;1.98;;;;;;;29.54;44.35;95774.66;5140332;57;20667;-70
2021/06/28 16:39:58;;;;;;;2.25;2.10;;;;;;;29.32;45.13;95762.44;5130133;57;20680;-68
2021/06/28 16:45:01;;;;;;;2.63;2.08;;;;;;;29.14;45.09;95763.94;5130416;57;20122;-69
2021/06/28 16:50:04;;;;;;;2.30;2.13;;;;;;;29.54;43.96;95761.16;5148637;57;20228;-68
2021/06/28 16:55:07;;;;;;;1.98;1.88;;;;;;;29.35;44.57;95758.38;5160964;57;20150;-70
2021/06/28 17:00:13;;;;;;;2.17;2.00;;;;;;;29.29;43.20;95754.34;5168128;57;20673;-69
2021/06/28 17:05:16;;;;;;;2.10;1.90;;;;;;;29.34;44.16;95747.59;5151666;57;20146;-69
2021/06/28 17:10:27;;;;;;;3.20;1.88;;;;;;;28.97;43.82;95744.19;5159410;57;20222;-69
2021/06/28 17:15:30;;;;;;;1.80;1.67;;;;;;;28.56;43.70;95740.41;5160135;57;20125;-69
2021/06/28 17:20:32;;;;;;;2.08;1.90;;;;;;;28.54;43.38;95722.47;5159343;57;20116;-68
2021/06/28 17:25:34;;;;;;;2.10;1.90;;;;;;;28.61;44.10;95730.13;5150567;57;20755;-69
2021/06/28 17:30:37;;;;;;;2.63;1.85;;;;;;;28.54;43.88;95720.34;5150322;57;20133;-70
2021/06/28 17:35:40;;;;;;;4.18;1.70;;;;;;;28.38;45.12;95741.91;5160016;57;20692;-68
2021/06/28 17:40:42;;;;;;;2.17;1.80;;;;;;;28.21;44.39;95739.91;5160945;57;20616;-71
2021/06/28 17:45:45;;;;;;;1.70;1.60;;;;;;;28.06;45.57;95757.22;5159649;57;20134;-70
2021/06/28 17:50:47;;;;;;;2.33;1.70;;;;;;;27.88;43.71;95735.16;5157417;57;20168;-69
2021/06/28 17:55:50;;;;;;;1.55;1.50;;;;;;;27.62;46.81;95742.38;5158252;57;20147;-69
2021/06/28 18:00:52;;;;;;;1.70;1.60;;;;;;;27.34;45.15;95754.31;5150047;57;20125;-69
2021/06/28 18:05:55;;;;;;;2.17;1.48;;;;;;;27.19;47.46;95746.75;5161379;57;20634;-70
2021/06/28 18:10:57;;;;;;;1.45;1.38;;;;;;;26.98;48.13;95752.13;5154281;57;20130;-69
2021/06/28 18:16:00;;;;;;;1.75;1.58;;;;;;;26.87;47.57;95744.13;5154292;57;20133;-70
2021/06/28 18:21:03;;;;;;;2.15;1.52;;;;;;;26.54;48.30;95740.72;5153499;57;20611;-70
2021/06/28 18:26:06;;;;;;;2.35;1.48;;;;;;;26.15;49.99;95736.00;5163392;57;20130;-69
2021/06/28 18:31:08;;;;;;;2.30;2.10;;;;;;;25.89;51.07;95733.78;5153600;57;20125;-70
2021/06/28 18:36:11;;;;;;;2.35;2.15;;;;;;;25.61;50.95;95721.53;5152157;57;20125;-70
2021/06/28 18:41:13;;;;;;;2.58;1.80;;;;;;;25.21;55.59;95712.38;5153587;57;20228;-70
2021/06/28 18:46:17;;;;;;;2.00;1.80;;;;;;;24.99;55.81;95713.22;5153109;57;20146;-70
2021/06/28 18:51:19;;;;;;;3.13;2.00;;;;;;;25.03;56.31;95707.94;5160536;57;20210;-70
2021/06/28 18:56:30;;;;;;;3.30;2.00;;;;;;;24.92;55.36;95702.72;5159951;57;20665;-70
2021/06/28 19:01:34;;;;;;;3.25;1.80;;;;;;;24.82;54.80;95707.47;5161911;57;20616;-69
2021/06/28 19:06:37;;;;;;;2.03;1.90;;;;;;;24.74;57.45;95701.09;5161415;57;20772;-69
2021/06/28 19:11:40;;;;;;;2.22;1.98;;;;;;;24.49;58.69;95705.91;5164098;57;20151;-70
2021/06/28 19:16:44;;;;;;;3.38;1.80;;;;;;;24.45;61.31;95706.28;5160406;57;20211;-71
2021/06/28 19:21:48;;;;;;;2.13;2.03;;;;;;;24.27;59.18;95693.34;5159722;57;20168;-71
2021/06/28 19:26:51;;;;;;;2.17;2.08;;;;;;;24.14;62.21;95704.84;5160294;57;20984;-70
2021/06/28 19:31:54;;;;;;;2.83;2.20;;;;;;;24.08;60.96;95690.97;5161637;57;20125;-70
2021/06/28 19:36:57;;;;;;;3.60;2.20;;;;;;;24.03;61.17;95683.41;5165824;57;20129;-71
2021/06/28 19:41:59;;;;;;;4.47;2.47;;;;;;;24.11;60.96;95694.69;5151940;57;20121;-70
2021/06/28 19:47:02;;;;;;;3.17;2.28;;;;;;;23.89;62.56;95684.16;5151394;57;20133;-70
2021/06/28 19:52:05;;;;;;;3.35;2.20;;;;;;;23.82;62.72;95701.84;5160320;57;20120;-71
2021/06/28 19:57:08;;;;;;;2.55;2.42;;;;;;;23.73;63.89;95710.88;5159464;57;20125;-70
2021/06/28 20:02:10;;;;;;;2.70;2.05;;;;;;;23.56;67.42;95731.22;5158609;57;20697;-71
2021/06/28 20:07:13;;;;;;;3.38;2.45;;;;;;;23.39;69.40;95728.94;5158828;57;20750;-69
2021/06/28 20:12:15;;;;;;;2.80;2.63;;;;;;;23.40;69.22;95738.16;5158428;57;20143;-71
2021/06/28 20:17:18;;;;;;;2.90;2.63;;;;;;;23.23;70.05;95735.06;5149850;57;20205;-70
2021/06/28 20:22:21;;;;;;;3.88;2.10;;;;;;;23.05;71.40;95728.47;5159619;57;20125;-70
2021/06/28 20:27:23;;;;;;;5.88;2.75;;;;;;;22.92;69.94;95727.88;5159339;57;20134;-70
2021/06/28 20:32:25;;;;;;;3.08;2.58;;;;;;;23.15;67.42;95725.88;5159225;57;20698;-69
2021/06/28 20:37:28;;;;;;;3.35;2.72;;;;;;;23.19;66.92;95712.91;5150226;57;20684;-70
2021/06/28 20:42:30;;;;;;;4.72;3.10;;;;;;;23.40;66.43;95712.78;5150643;57;20134;-71
2021/06/28 20:47:33;;;;;;;3.25;3.05;;;;;;;23.53;66.04;95709.78;5159100;57;20116;-71
2021/06/28 20:52:35;;;;;;;3.17;2.92;;;;;;;23.35;67.78;95739.09;5157205;57;20148;-70
2021/06/28 20:57:38;;;;;;;3.83;3.17;;;;;;;23.55;67.66;95769.19;5157877;57;20112;-71
2021/06/28 21:02:40;;;;;;;4.45;3.10;;;;;;;23.60;67.22;95778.78;5158572;57;20147;-72
2021/06/28 21:07:42;;;;;;;3.67;3.03;;;;;;;23.49;65.37;95794.00;5158213;57;20130;-70
2021/06/28 21:12:45;;;;;;;5.95;2.50;;;;;;;23.60;62.41;95821.84;5158235;57;20130;-70
2021/06/28 21:17:48;;;;;;;4.05;2.45;;;;;;;23.72;60.91;95850.47;5156184;57;20125;-70
2021/06/28 21:22:51;;;;;;;3.20;2.40;;;;;;;23.80;61.97;95916.88;5156359;57;21870;-70
2021/06/28 21:27:54;;;;;;;5.13;1.85;;;;;;;23.35;58.79;95979.53;5157647;57;20121;-71
2021/06/28 21:32:56;;;;;;;3.05;2.42;;;;;;;21.11;76.89;95992.25;5170943;57;20099;-74
2021/06/28 21:37:59;;;;;;;5.65;4.05;;;;;;;18.40;91.58;95962.38;5171113;57;20108;-72
2021/06/28 21:43:01;;;;;;;3.50;3.20;;;;;;;18.36;94.19;95957.06;5172755;57;20160;-75
2021/06/28 21:48:04;;;;;;;7.07;4.90;;;;;;;18.38;93.84;95985.28;5181775;57;20138;-71
2021/06/28 21:53:06;;;;;;;3.90;3.60;;;;;;;18.66;93.02;95995.50;5184426;57;20218;-71
2021/06/28 21:58:10;;;;;;;4.35;3.95;;;;;;;18.93;92.39;96009.19;5178894;57;20134;-71
2021/06/28 22:03:12;;;;;;;6.90;4.80;;;;;;;18.98;91.43;95923.59;5173446;57;20687;-71
2021/06/28 22:08:15;;;;;;;4.03;3.72;;;;;;;18.81;92.66;95870.63;5165886;57;20120;-72
2021/06/28 22:13:18;;;;;;;6.60;4.30;;;;;;;18.86;93.37;95883.06;5164173;57;20147;-71
2021/06/28 22:18:21;;;;;;;6.00;4.72;;;;;;;18.82;93.47;95883.34;5162411;57;20116;-72
2021/06/28 22:23:23;;;;;;;4.43;3.92;;;;;;;19.10;93.87;95944.59;5161298;57;20134;-71
2021/06/28 22:28:26;;;;;;;4.15;3.75;;;;;;;19.05;93.69;96007.03;5159696;57;20626;-71
2021/06/28 22:33:29;;;;;;;8.07;3.78;;;;;;;19.17;94.15;95994.44;5161121;57;20130;-71
2021/06/28 22:38:31;;;;;;;4.50;4.10;;;;;;;19.19;94.57;96011.47;5161293;57;20134;-71
2021/06/28 22:43:35;;;;;;;4.35;3.92;;;;;;;19.10;95.18;96020.22;5160122;57;20152;-72
2021/06/28 22:48:37;;;;;;;3.75;3.45;;;;;;;19.20;94.95;96038.94;5160441;57;20120;-72
2021/06/28 22:53:40;;;;;;;3.38;3.08;;;;;;;19.01;94.56;96038.16;5160883;57;20116;-72
2021/06/28 22:58:43;;;;;;;3.33;3.13;;;;;;;18.95;94.12;96026.22;5160838;57;20129;-72
2021/06/28 23:03:46;;;;;;;4.82;3.30;;;;;;;18.85;94.04;96033.47;5160997;57;20153;-73
2021/06/28 23:08:49;;;;;;;4.65;2.90;;;;;;;18.93;93.43;96042.06;5160571;57;20129;-73
2021/06/28 23:13:51;;;;;;;2.72;2.53;;;;;;;18.96;92.29;96058.56;5160807;57;20138;-72
2021/06/28 23:18:53;;;;;;;5.45;2.65;;;;;;;18.84;92.76;96073.19;5160504;57;20226;-72
2021/06/28 23:23:56;;;;;;;2.72;2.53;;;;;;;18.54;93.25;96071.13;5160457;57;20661;-72
2021/06/28 23:28:58;;;;;;;2.30;2.10;;;;;;;18.54;92.48;96078.78;5160037;57;20125;-71
2021/06/28 23:34:01;;;;;;;2.50;2.30;;;;;;;18.42;92.22;96086.47;5160546;57;20130;-72
2021/06/28 23:39:04;;;;;;;3.95;2.65;;;;;;;18.37;91.80;96089.31;5160379;57;20124;-72
2021/06/28 23:44:07;;;;;;;2.22;2.13;;;;;;;18.31;92.15;96094.97;5160434;57;20130;-71
2021/06/28 23:49:09;;;;;;;2.72;2.45;;;;;;;18.25;91.95;96099.81;5160147;57;20666;-72
2021/06/28 23:54:12;;;;;;;3.60;2.35;;;;;;;18.31;91.80;96094.19;5160131;57;20697;-72